sensor_id;sensor_type;location;lat;lon;timestamp;P1;durP1;ratioP1;P2;durP2;ratioP2
58214;SDS011;44011;52.218;1.480;2022-07-18T00:02:17;6.93;;;5.10;;
58214;SDS011;44011;52.218;1.480;2022-07-18T00:04:43;9.38;;;5.38;;
58214;SDS011;44011;52.218;1.480;2022-07-18T00:07:09;8.82;;;5.57;;
58214;SDS011;44011;52.218;1.480;2022-07-18T00:09:37;7.95;;;5.97;;
58214;SDS011;44011;52.218;1.480;2022-07-18T00:12:07;7.07;;;5.72;;
58214;SDS011;44011;52.218;1.480;2022-07-18T00:14:34;7.45;;;5.20;;
58214;SDS011;44011;52.218;1.480;2022-07-18T00:17:00;9.93;;;4.85;;
58214;SDS011;44011;52.218;1.480;2022-07-18T00:19:26;8.38;;;5.20;;
58214;SDS011;44011;52.218;1.480;2022-07-18T00:21:52;8.98;;;4.97;;
58214;SDS011;44011;52.218;1.480;2022-07-18T00:24:17;6.13;;;4.32;;
58214;SDS011;44011;52.218;1.480;2022-07-18T00:26:43;7.25;;;4.05;;
58214;SDS011;44011;52.218;1.480;2022-07-18T00:29:08;6.68;;;4.20;;
58214;SDS011;44011;52.218;1.480;2022-07-18T00:31:34;5.18;;;4.47;;
58214;SDS011;44011;52.218;1.480;2022-07-18T00:34:00;6.20;;;5.30;;
58214;SDS011;44011;52.218;1.480;2022-07-18T00:36:26;9.32;;;6.03;;
58214;SDS011;44011;52.218;1.480;2022-07-18T00:38:52;9.43;;;6.10;;
58214;SDS011;44011;52.218;1.480;2022-07-18T00:41:19;9.05;;;7.28;;
58214;SDS011;44011;52.218;1.480;2022-07-18T00:43:44;7.95;;;6.75;;
58214;SDS011;44011;52.218;1.480;2022-07-18T00:46:10;10.90;;;6.97;;
58214;SDS011;44011;52.218;1.480;2022-07-18T00:48:39;6.60;;;5.63;;
58214;SDS011;44011;52.218;1.480;2022-07-18T00:51:05;8.15;;;5.80;;
58214;SDS011;44011;52.218;1.480;2022-07-18T00:53:31;11.05;;;6.45;;
58214;SDS011;44011;52.218;1.480;2022-07-18T00:55:56;9.77;;;8.40;;
58214;SDS011;44011;52.218;1.480;2022-07-18T00:58:22;8.27;;;6.60;;
58214;SDS011;44011;52.218;1.480;2022-07-18T01:00:47;6.60;;;5.72;;
58214;SDS011;44011;52.218;1.480;2022-07-18T01:03:32;8.63;;;5.60;;
58214;SDS011;44011;52.218;1.480;2022-07-18T01:05:57;9.60;;;5.35;;
58214;SDS011;44011;52.218;1.480;2022-07-18T01:08:23;9.32;;;6.20;;
58214;SDS011;44011;52.218;1.480;2022-07-18T01:10:49;9.27;;;6.88;;
58214;SDS011;44011;52.218;1.480;2022-07-18T01:13:16;7.38;;;5.72;;
58214;SDS011;44011;52.218;1.480;2022-07-18T01:15:42;5.57;;;4.57;;
58214;SDS011;44011;52.218;1.480;2022-07-18T01:18:07;11.15;;;6.28;;
58214;SDS011;44011;52.218;1.480;2022-07-18T01:20:34;10.20;;;6.68;;
58214;SDS011;44011;52.218;1.480;2022-07-18T01:22:59;6.80;;;5.72;;
58214;SDS011;44011;52.218;1.480;2022-07-18T01:25:25;6.88;;;5.35;;
58214;SDS011;44011;52.218;1.480;2022-07-18T01:27:51;7.13;;;5.07;;
58214;SDS011;44011;52.218;1.480;2022-07-18T01:30:17;6.15;;;4.53;;
58214;SDS011;44011;52.218;1.480;2022-07-18T01:32:43;8.18;;;4.88;;
58214;SDS011;44011;52.218;1.480;2022-07-18T01:35:08;8.63;;;5.00;;
58214;SDS011;44011;52.218;1.480;2022-07-18T01:37:35;9.00;;;6.43;;
58214;SDS011;44011;52.218;1.480;2022-07-18T01:40:00;9.68;;;6.63;;
58214;SDS011;44011;52.218;1.480;2022-07-18T01:42:26;10.75;;;6.53;;
58214;SDS011;44011;52.218;1.480;2022-07-18T01:44:52;10.63;;;6.57;;
58214;SDS011;44011;52.218;1.480;2022-07-18T01:47:17;9.65;;;6.82;;
58214;SDS011;44011;52.218;1.480;2022-07-18T01:49:42;10.23;;;6.70;;
58214;SDS011;44011;52.218;1.480;2022-07-18T01:52:08;8.07;;;6.90;;
58214;SDS011;44011;52.218;1.480;2022-07-18T01:54:34;9.70;;;7.72;;
58214;SDS011;44011;52.218;1.480;2022-07-18T01:57:02;9.93;;;7.43;;
58214;SDS011;44011;52.218;1.480;2022-07-18T01:59:29;9.57;;;7.78;;
58214;SDS011;44011;52.218;1.480;2022-07-18T02:01:54;13.60;;;8.10;;
58214;SDS011;44011;52.218;1.480;2022-07-18T02:04:20;14.15;;;8.70;;
58214;SDS011;44011;52.218;1.480;2022-07-18T02:09:31;7.80;;;6.20;;
58214;SDS011;44011;52.218;1.480;2022-07-18T02:11:56;7.82;;;6.05;;
58214;SDS011;44011;52.218;1.480;2022-07-18T02:14:22;7.25;;;5.50;;
58214;SDS011;44011;52.218;1.480;2022-07-18T02:16:47;7.82;;;5.38;;
58214;SDS011;44011;52.218;1.480;2022-07-18T02:19:12;9.25;;;5.70;;
58214;SDS011;44011;52.218;1.480;2022-07-18T02:21:38;5.60;;;5.00;;
58214;SDS011;44011;52.218;1.480;2022-07-18T02:24:04;7.25;;;5.25;;
58214;SDS011;44011;52.218;1.480;2022-07-18T02:26:29;7.80;;;4.78;;
58214;SDS011;44011;52.218;1.480;2022-07-18T02:28:55;7.57;;;5.40;;
58214;SDS011;44011;52.218;1.480;2022-07-18T02:31:20;6.35;;;5.30;;
58214;SDS011;44011;52.218;1.480;2022-07-18T02:33:48;6.72;;;5.10;;
58214;SDS011;44011;52.218;1.480;2022-07-18T02:36:14;7.78;;;6.22;;
58214;SDS011;44011;52.218;1.480;2022-07-18T02:38:39;7.57;;;6.22;;
58214;SDS011;44011;52.218;1.480;2022-07-18T02:41:05;8.65;;;5.90;;
58214;SDS011;44011;52.218;1.480;2022-07-18T02:43:30;9.32;;;6.97;;
58214;SDS011;44011;52.218;1.480;2022-07-18T02:45:56;7.43;;;5.75;;
58214;SDS011;44011;52.218;1.480;2022-07-18T02:48:21;9.32;;;6.15;;
58214;SDS011;44011;52.218;1.480;2022-07-18T02:50:47;8.48;;;5.70;;
58214;SDS011;44011;52.218;1.480;2022-07-18T02:53:12;8.50;;;5.65;;
58214;SDS011;44011;52.218;1.480;2022-07-18T02:55:38;7.55;;;5.10;;
58214;SDS011;44011;52.218;1.480;2022-07-18T02:58:03;5.82;;;5.20;;
58214;SDS011;44011;52.218;1.480;2022-07-18T03:00:29;6.88;;;4.95;;
58214;SDS011;44011;52.218;1.480;2022-07-18T03:02:56;7.28;;;5.60;;
58214;SDS011;44011;52.218;1.480;2022-07-18T03:05:21;7.75;;;5.50;;
58214;SDS011;44011;52.218;1.480;2022-07-18T03:07:47;6.70;;;5.13;;
58214;SDS011;44011;52.218;1.480;2022-07-18T03:10:12;11.70;;;5.72;;
58214;SDS011;44011;52.218;1.480;2022-07-18T03:12:42;7.72;;;5.95;;
58214;SDS011;44011;52.218;1.480;2022-07-18T03:15:07;7.72;;;5.72;;
58214;SDS011;44011;52.218;1.480;2022-07-18T03:17:33;8.50;;;6.28;;
58214;SDS011;44011;52.218;1.480;2022-07-18T03:19:59;8.00;;;5.78;;
58214;SDS011;44011;52.218;1.480;2022-07-18T03:22:24;7.43;;;5.50;;
58214;SDS011;44011;52.218;1.480;2022-07-18T03:24:50;8.00;;;5.43;;
58214;SDS011;44011;52.218;1.480;2022-07-18T03:27:16;5.95;;;5.22;;
58214;SDS011;44011;52.218;1.480;2022-07-18T03:29:41;8.25;;;4.85;;
58214;SDS011;44011;52.218;1.480;2022-07-18T03:32:08;6.53;;;5.05;;
58214;SDS011;44011;52.218;1.480;2022-07-18T03:34:33;9.43;;;5.30;;
58214;SDS011;44011;52.218;1.480;2022-07-18T03:36:58;6.88;;;5.30;;
58214;SDS011;44011;52.218;1.480;2022-07-18T03:39:24;7.75;;;5.35;;
58214;SDS011;44011;52.218;1.480;2022-07-18T03:41:52;10.55;;;5.25;;
58214;SDS011;44011;52.218;1.480;2022-07-18T03:44:17;7.78;;;5.13;;
58214;SDS011;44011;52.218;1.480;2022-07-18T03:46:43;6.78;;;5.43;;
58214;SDS011;44011;52.218;1.480;2022-07-18T03:49:08;6.18;;;4.90;;
58214;SDS011;44011;52.218;1.480;2022-07-18T03:51:34;6.82;;;4.55;;
58214;SDS011;44011;52.218;1.480;2022-07-18T03:53:59;5.32;;;4.50;;
58214;SDS011;44011;52.218;1.480;2022-07-18T03:56:25;11.40;;;4.40;;
58214;SDS011;44011;52.218;1.480;2022-07-18T03:58:50;6.55;;;4.70;;
58214;SDS011;44011;52.218;1.480;2022-07-18T04:01:16;5.72;;;4.35;;
58214;SDS011;44011;52.218;1.480;2022-07-18T04:03:42;8.00;;;4.20;;
58214;SDS011;44011;52.218;1.480;2022-07-18T04:06:07;7.15;;;4.40;;
58214;SDS011;44011;52.218;1.480;2022-07-18T04:08:33;7.32;;;4.15;;
58214;SDS011;44011;52.218;1.480;2022-07-18T04:10:58;5.43;;;3.88;;
58214;SDS011;44011;52.218;1.480;2022-07-18T04:13:24;7.25;;;5.15;;
58214;SDS011;44011;52.218;1.480;2022-07-18T04:15:49;6.28;;;3.83;;
58214;SDS011;44011;52.218;1.480;2022-07-18T04:18:15;6.00;;;4.55;;
58214;SDS011;44011;52.218;1.480;2022-07-18T04:20:40;7.72;;;4.20;;
58214;SDS011;44011;52.218;1.480;2022-07-18T04:23:07;9.25;;;4.57;;
58214;SDS011;44011;52.218;1.480;2022-07-18T04:25:34;5.63;;;3.83;;
58214;SDS011;44011;52.218;1.480;2022-07-18T04:28:05;6.70;;;4.07;;
58214;SDS011;44011;52.218;1.480;2022-07-18T04:30:32;5.72;;;3.75;;
58214;SDS011;44011;52.218;1.480;2022-07-18T04:32:57;6.45;;;4.28;;
58214;SDS011;44011;52.218;1.480;2022-07-18T04:35:25;5.55;;;3.88;;
58214;SDS011;44011;52.218;1.480;2022-07-18T04:37:51;4.15;;;3.75;;
58214;SDS011;44011;52.218;1.480;2022-07-18T04:40:17;5.18;;;3.55;;
58214;SDS011;44011;52.218;1.480;2022-07-18T04:42:43;4.43;;;3.47;;
58214;SDS011;44011;52.218;1.480;2022-07-18T04:45:08;6.70;;;4.50;;
58214;SDS011;44011;52.218;1.480;2022-07-18T04:47:34;8.40;;;4.57;;
58214;SDS011;44011;52.218;1.480;2022-07-18T04:50:00;4.25;;;3.50;;
58214;SDS011;44011;52.218;1.480;2022-07-18T04:52:25;6.40;;;3.78;;
58214;SDS011;44011;52.218;1.480;2022-07-18T04:54:51;6.88;;;4.30;;
58214;SDS011;44011;52.218;1.480;2022-07-18T04:57:17;5.93;;;4.50;;
58214;SDS011;44011;52.218;1.480;2022-07-18T04:59:43;5.75;;;3.85;;
58214;SDS011;44011;52.218;1.480;2022-07-18T05:02:09;6.72;;;4.60;;
58214;SDS011;44011;52.218;1.480;2022-07-18T05:04:35;6.95;;;4.35;;
58214;SDS011;44011;52.218;1.480;2022-07-18T05:07:01;6.72;;;4.63;;
58214;SDS011;44011;52.218;1.480;2022-07-18T05:09:27;6.75;;;5.00;;
58214;SDS011;44011;52.218;1.480;2022-07-18T05:11:53;6.50;;;4.40;;
58214;SDS011;44011;52.218;1.480;2022-07-18T05:14:19;5.85;;;3.95;;
58214;SDS011;44011;52.218;1.480;2022-07-18T05:16:46;8.07;;;4.07;;
58214;SDS011;44011;52.218;1.480;2022-07-18T05:19:12;5.00;;;4.07;;
58214;SDS011;44011;52.218;1.480;2022-07-18T05:21:40;5.53;;;4.03;;
58214;SDS011;44011;52.218;1.480;2022-07-18T05:24:06;4.90;;;4.25;;
58214;SDS011;44011;52.218;1.480;2022-07-18T05:26:31;5.90;;;4.15;;
58214;SDS011;44011;52.218;1.480;2022-07-18T05:28:57;6.40;;;3.83;;
58214;SDS011;44011;52.218;1.480;2022-07-18T05:31:22;6.65;;;3.88;;
58214;SDS011;44011;52.218;1.480;2022-07-18T05:33:48;5.95;;;3.83;;
58214;SDS011;44011;52.218;1.480;2022-07-18T05:36:13;6.35;;;4.35;;
58214;SDS011;44011;52.218;1.480;2022-07-18T05:38:39;8.07;;;4.40;;
58214;SDS011;44011;52.218;1.480;2022-07-18T05:41:05;5.85;;;4.63;;
58214;SDS011;44011;52.218;1.480;2022-07-18T05:43:30;5.90;;;4.20;;
58214;SDS011;44011;52.218;1.480;2022-07-18T05:45:56;8.50;;;4.40;;
58214;SDS011;44011;52.218;1.480;2022-07-18T05:48:21;7.57;;;4.25;;
58214;SDS011;44011;52.218;1.480;2022-07-18T05:50:47;4.63;;;3.85;;
58214;SDS011;44011;52.218;1.480;2022-07-18T05:53:12;6.43;;;4.43;;
58214;SDS011;44011;52.218;1.480;2022-07-18T05:55:39;7.47;;;4.90;;
58214;SDS011;44011;52.218;1.480;2022-07-18T05:58:04;7.00;;;4.78;;
58214;SDS011;44011;52.218;1.480;2022-07-18T06:00:30;7.95;;;5.13;;
58214;SDS011;44011;52.218;1.480;2022-07-18T06:02:56;5.53;;;4.25;;
58214;SDS011;44011;52.218;1.480;2022-07-18T06:05:21;7.28;;;4.35;;
58214;SDS011;44011;52.218;1.480;2022-07-18T06:07:47;5.32;;;4.15;;
58214;SDS011;44011;52.218;1.480;2022-07-18T06:10:12;7.65;;;5.00;;
58214;SDS011;44011;52.218;1.480;2022-07-18T06:12:38;9.77;;;4.88;;
58214;SDS011;44011;52.218;1.480;2022-07-18T06:15:04;7.15;;;4.45;;
58214;SDS011;44011;52.218;1.480;2022-07-18T06:17:32;6.40;;;4.95;;
58214;SDS011;44011;52.218;1.480;2022-07-18T06:19:57;9.35;;;5.03;;
58214;SDS011;44011;52.218;1.480;2022-07-18T06:22:23;7.07;;;4.57;;
58214;SDS011;44011;52.218;1.480;2022-07-18T06:24:50;8.50;;;4.60;;
58214;SDS011;44011;52.218;1.480;2022-07-18T06:27:15;11.95;;;4.85;;
58214;SDS011;44011;52.218;1.480;2022-07-18T06:29:41;7.45;;;4.75;;
58214;SDS011;44011;52.218;1.480;2022-07-18T06:32:08;7.75;;;4.80;;
58214;SDS011;44011;52.218;1.480;2022-07-18T06:34:33;8.60;;;4.75;;
58214;SDS011;44011;52.218;1.480;2022-07-18T06:36:59;7.72;;;5.40;;
58214;SDS011;44011;52.218;1.480;2022-07-18T06:39:24;9.30;;;5.13;;
58214;SDS011;44011;52.218;1.480;2022-07-18T06:41:50;9.45;;;4.57;;
58214;SDS011;44011;52.218;1.480;2022-07-18T06:44:16;11.77;;;5.05;;
58214;SDS011;44011;52.218;1.480;2022-07-18T06:46:42;9.00;;;4.93;;
58214;SDS011;44011;52.218;1.480;2022-07-18T06:49:07;7.55;;;4.18;;
58214;SDS011;44011;52.218;1.480;2022-07-18T06:51:33;9.10;;;4.45;;
58214;SDS011;44011;52.218;1.480;2022-07-18T06:53:59;6.53;;;4.07;;
58214;SDS011;44011;52.218;1.480;2022-07-18T06:56:25;6.15;;;4.13;;
58214;SDS011;44011;52.218;1.480;2022-07-18T06:58:50;5.68;;;3.65;;
58214;SDS011;44011;52.218;1.480;2022-07-18T07:01:17;9.32;;;4.57;;
58214;SDS011;44011;52.218;1.480;2022-07-18T07:03:43;7.70;;;4.10;;
58214;SDS011;44011;52.218;1.480;2022-07-18T07:06:10;5.93;;;4.10;;
58214;SDS011;44011;52.218;1.480;2022-07-18T07:08:35;8.95;;;3.80;;
58214;SDS011;44011;52.218;1.480;2022-07-18T07:11:01;8.73;;;4.68;;
58214;SDS011;44011;52.218;1.480;2022-07-18T07:13:26;9.68;;;4.45;;
58214;SDS011;44011;52.218;1.480;2022-07-18T07:15:52;7.53;;;4.00;;
58214;SDS011;44011;52.218;1.480;2022-07-18T07:18:17;7.47;;;4.28;;
58214;SDS011;44011;52.218;1.480;2022-07-18T07:20:43;5.63;;;3.50;;
58214;SDS011;44011;52.218;1.480;2022-07-18T07:23:09;7.97;;;3.72;;
58214;SDS011;44011;52.218;1.480;2022-07-18T07:25:35;6.05;;;3.55;;
58214;SDS011;44011;52.218;1.480;2022-07-18T07:28:01;5.22;;;3.63;;
58214;SDS011;44011;52.218;1.480;2022-07-18T07:30:27;5.32;;;2.95;;
58214;SDS011;44011;52.218;1.480;2022-07-18T07:32:53;7.47;;;3.53;;
58214;SDS011;44011;52.218;1.480;2022-07-18T07:35:19;8.75;;;3.53;;
58214;SDS011;44011;52.218;1.480;2022-07-18T07:37:46;6.82;;;4.50;;
58214;SDS011;44011;52.218;1.480;2022-07-18T07:40:14;8.90;;;3.60;;
58214;SDS011;44011;52.218;1.480;2022-07-18T07:42:42;7.57;;;3.63;;
58214;SDS011;44011;52.218;1.480;2022-07-18T07:45:08;7.53;;;3.15;;
58214;SDS011;44011;52.218;1.480;2022-07-18T07:47:35;9.45;;;3.35;;
58214;SDS011;44011;52.218;1.480;2022-07-18T07:50:01;9.27;;;3.40;;
58214;SDS011;44011;52.218;1.480;2022-07-18T07:52:27;4.55;;;3.25;;
58214;SDS011;44011;52.218;1.480;2022-07-18T07:54:54;6.75;;;3.38;;
58214;SDS011;44011;52.218;1.480;2022-07-18T07:57:19;5.40;;;3.42;;
58214;SDS011;44011;52.218;1.480;2022-07-18T07:59:45;8.25;;;3.20;;
58214;SDS011;44011;52.218;1.480;2022-07-18T08:02:11;6.13;;;3.42;;
58214;SDS011;44011;52.218;1.480;2022-07-18T08:04:37;8.15;;;3.33;;
58214;SDS011;44011;52.218;1.480;2022-07-18T08:07:03;5.15;;;3.28;;
58214;SDS011;44011;52.218;1.480;2022-07-18T08:09:29;6.45;;;3.58;;
58214;SDS011;44011;52.218;1.480;2022-07-18T08:11:55;5.40;;;3.13;;
58214;SDS011;44011;52.218;1.480;2022-07-18T08:14:20;4.15;;;2.83;;
58214;SDS011;44011;52.218;1.480;2022-07-18T08:16:45;7.68;;;3.10;;
58214;SDS011;44011;52.218;1.480;2022-07-18T08:19:11;6.50;;;3.25;;
58214;SDS011;44011;52.218;1.480;2022-07-18T08:21:36;4.95;;;2.90;;
58214;SDS011;44011;52.218;1.480;2022-07-18T08:24:02;5.18;;;2.30;;
58214;SDS011;44011;52.218;1.480;2022-07-18T08:26:28;4.05;;;3.10;;
58214;SDS011;44011;52.218;1.480;2022-07-18T08:28:54;5.25;;;2.70;;
58214;SDS011;44011;52.218;1.480;2022-07-18T08:31:19;7.72;;;2.45;;
58214;SDS011;44011;52.218;1.480;2022-07-18T08:33:45;6.45;;;2.78;;
58214;SDS011;44011;52.218;1.480;2022-07-18T08:36:12;8.48;;;3.13;;
58214;SDS011;44011;52.218;1.480;2022-07-18T08:38:37;9.95;;;3.35;;
58214;SDS011;44011;52.218;1.480;2022-07-18T08:41:03;5.18;;;2.85;;
58214;SDS011;44011;52.218;1.480;2022-07-18T08:43:28;6.00;;;2.50;;
58214;SDS011;44011;52.218;1.480;2022-07-18T08:45:55;6.40;;;3.03;;
58214;SDS011;44011;52.218;1.480;2022-07-18T08:48:22;4.32;;;2.65;;
58214;SDS011;44011;52.218;1.480;2022-07-18T08:50:48;4.57;;;2.53;;
58214;SDS011;44011;52.218;1.480;2022-07-18T08:53:14;5.95;;;2.70;;
58214;SDS011;44011;52.218;1.480;2022-07-18T08:55:41;5.82;;;2.40;;
58214;SDS011;44011;52.218;1.480;2022-07-18T08:58:07;5.30;;;2.58;;
58214;SDS011;44011;52.218;1.480;2022-07-18T09:00:35;4.72;;;2.80;;
58214;SDS011;44011;52.218;1.480;2022-07-18T09:03:01;9.60;;;3.28;;
58214;SDS011;44011;52.218;1.480;2022-07-18T09:05:28;7.22;;;2.85;;
58214;SDS011;44011;52.218;1.480;2022-07-18T09:13:17;5.53;;;3.00;;
58214;SDS011;44011;52.218;1.480;2022-07-18T09:16:03;11.20;;;3.88;;
58214;SDS011;44011;52.218;1.480;2022-07-18T09:21:06;7.00;;;2.90;;
58214;SDS011;44011;52.218;1.480;2022-07-18T09:23:37;3.55;;;2.80;;
58214;SDS011;44011;52.218;1.480;2022-07-18T09:26:07;4.82;;;2.88;;
58214;SDS011;44011;52.218;1.480;2022-07-18T09:28:47;4.60;;;2.60;;
58214;SDS011;44011;52.218;1.480;2022-07-18T09:31:20;6.15;;;2.50;;
58214;SDS011;44011;52.218;1.480;2022-07-18T09:33:56;5.38;;;2.80;;
58214;SDS011;44011;52.218;1.480;2022-07-18T09:36:23;4.32;;;2.70;;
58214;SDS011;44011;52.218;1.480;2022-07-18T09:38:49;4.90;;;2.75;;
58214;SDS011;44011;52.218;1.480;2022-07-18T09:41:15;5.25;;;2.60;;
58214;SDS011;44011;52.218;1.480;2022-07-18T09:43:40;4.90;;;2.92;;
58214;SDS011;44011;52.218;1.480;2022-07-18T09:46:06;4.97;;;2.80;;
58214;SDS011;44011;52.218;1.480;2022-07-18T09:48:32;4.30;;;2.85;;
58214;SDS011;44011;52.218;1.480;2022-07-18T09:50:59;6.47;;;3.28;;
58214;SDS011;44011;52.218;1.480;2022-07-18T09:55:57;6.22;;;2.45;;
58214;SDS011;44011;52.218;1.480;2022-07-18T09:58:27;6.05;;;2.70;;
58214;SDS011;44011;52.218;1.480;2022-07-18T10:00:57;4.95;;;2.75;;
58214;SDS011;44011;52.218;1.480;2022-07-18T10:03:24;3.17;;;2.53;;
58214;SDS011;44011;52.218;1.480;2022-07-18T10:05:50;4.03;;;2.80;;
58214;SDS011;44011;52.218;1.480;2022-07-18T10:08:18;3.80;;;2.95;;
58214;SDS011;44011;52.218;1.480;2022-07-18T10:10:46;5.55;;;2.33;;
58214;SDS011;44011;52.218;1.480;2022-07-18T10:13:14;4.55;;;2.75;;
58214;SDS011;44011;52.218;1.480;2022-07-18T10:15:41;3.72;;;2.60;;
58214;SDS011;44011;52.218;1.480;2022-07-18T10:18:10;7.97;;;2.90;;
58214;SDS011;44011;52.218;1.480;2022-07-18T10:20:39;3.78;;;2.85;;
58214;SDS011;44011;52.218;1.480;2022-07-18T10:23:15;6.38;;;2.60;;
58214;SDS011;44011;52.218;1.480;2022-07-18T10:25:41;6.53;;;2.50;;
58214;SDS011;44011;52.218;1.480;2022-07-18T10:28:11;7.55;;;3.10;;
58214;SDS011;44011;52.218;1.480;2022-07-18T10:38:29;4.53;;;2.70;;
58214;SDS011;44011;52.218;1.480;2022-07-18T10:41:05;5.90;;;2.80;;
58214;SDS011;44011;52.218;1.480;2022-07-18T10:43:35;4.25;;;2.97;;
58214;SDS011;44011;52.218;1.480;2022-07-18T10:46:03;5.85;;;2.58;;
58214;SDS011;44011;52.218;1.480;2022-07-18T10:51:04;5.53;;;2.50;;
58214;SDS011;44011;52.218;1.480;2022-07-18T10:57:04;3.53;;;2.15;;
58214;SDS011;44011;52.218;1.480;2022-07-18T10:59:20;4.55;;;2.67;;
58214;SDS011;44011;52.218;1.480;2022-07-18T11:01:53;4.25;;;2.63;;
58214;SDS011;44011;52.218;1.480;2022-07-18T11:06:52;4.47;;;2.92;;
58214;SDS011;44011;52.218;1.480;2022-07-18T11:09:36;4.15;;;3.15;;
58214;SDS011;44011;52.218;1.480;2022-07-18T11:23:13;3.78;;;2.40;;
58214;SDS011;44011;52.218;1.480;2022-07-18T11:25:50;5.30;;;2.78;;
58214;SDS011;44011;52.218;1.480;2022-07-18T11:28:20;5.57;;;2.60;;
58214;SDS011;44011;52.218;1.480;2022-07-18T11:30:46;3.72;;;2.90;;
58214;SDS011;44011;52.218;1.480;2022-07-18T11:33:25;3.50;;;3.10;;
58214;SDS011;44011;52.218;1.480;2022-07-18T11:35:52;4.32;;;2.88;;
58214;SDS011;44011;52.218;1.480;2022-07-18T11:38:18;4.32;;;2.67;;
58214;SDS011;44011;52.218;1.480;2022-07-18T11:40:47;4.70;;;2.55;;
58214;SDS011;44011;52.218;1.480;2022-07-18T11:43:20;4.82;;;2.45;;
58214;SDS011;44011;52.218;1.480;2022-07-18T11:45:46;4.55;;;2.67;;
58214;SDS011;44011;52.218;1.480;2022-07-18T11:48:12;6.38;;;2.40;;
58214;SDS011;44011;52.218;1.480;2022-07-18T11:50:47;4.72;;;2.63;;
58214;SDS011;44011;52.218;1.480;2022-07-18T11:53:13;4.82;;;3.05;;
58214;SDS011;44011;52.218;1.480;2022-07-18T11:55:39;5.30;;;2.78;;
58214;SDS011;44011;52.218;1.480;2022-07-18T11:58:08;5.47;;;2.60;;
58214;SDS011;44011;52.218;1.480;2022-07-18T12:00:34;6.18;;;2.92;;
58214;SDS011;44011;52.218;1.480;2022-07-18T12:03:07;3.92;;;2.80;;
58214;SDS011;44011;52.218;1.480;2022-07-18T12:05:37;6.65;;;2.53;;
58214;SDS011;44011;52.218;1.480;2022-07-18T12:08:35;4.38;;;2.53;;
58214;SDS011;44011;52.218;1.480;2022-07-18T12:11:03;2.90;;;2.55;;
58214;SDS011;44011;52.218;1.480;2022-07-18T12:13:42;4.15;;;2.65;;
58214;SDS011;44011;52.218;1.480;2022-07-18T12:16:36;3.53;;;2.20;;
58214;SDS011;44011;52.218;1.480;2022-07-18T12:19:09;4.18;;;2.80;;
58214;SDS011;44011;52.218;1.480;2022-07-18T12:24:23;4.22;;;2.83;;
58214;SDS011;44011;52.218;1.480;2022-07-18T12:27:07;6.50;;;3.10;;
58214;SDS011;44011;52.218;1.480;2022-07-18T12:32:24;4.15;;;2.35;;
58214;SDS011;44011;52.218;1.480;2022-07-18T12:34:57;3.60;;;2.95;;
58214;SDS011;44011;52.218;1.480;2022-07-18T12:37:26;3.10;;;2.13;;
58214;SDS011;44011;52.218;1.480;2022-07-18T12:39:59;4.22;;;2.50;;
58214;SDS011;44011;52.218;1.480;2022-07-18T12:42:33;2.83;;;2.63;;
58214;SDS011;44011;52.218;1.480;2022-07-18T12:45:00;4.40;;;2.58;;
58214;SDS011;44011;52.218;1.480;2022-07-18T12:47:26;4.30;;;2.30;;
58214;SDS011;44011;52.218;1.480;2022-07-18T12:49:52;2.55;;;2.33;;
58214;SDS011;44011;52.218;1.480;2022-07-18T12:52:18;7.13;;;2.83;;
58214;SDS011;44011;52.218;1.480;2022-07-18T12:54:44;4.53;;;2.75;;
58214;SDS011;44011;52.218;1.480;2022-07-18T12:57:10;4.45;;;2.75;;
58214;SDS011;44011;52.218;1.480;2022-07-18T12:59:35;3.47;;;2.45;;
58214;SDS011;44011;52.218;1.480;2022-07-18T13:02:01;3.33;;;2.97;;
58214;SDS011;44011;52.218;1.480;2022-07-18T13:04:27;4.03;;;2.47;;
58214;SDS011;44011;52.218;1.480;2022-07-18T13:06:53;2.63;;;2.33;;
58214;SDS011;44011;52.218;1.480;2022-07-18T13:09:18;3.20;;;2.20;;
58214;SDS011;44011;52.218;1.480;2022-07-18T13:11:43;3.42;;;2.35;;
58214;SDS011;44011;52.218;1.480;2022-07-18T13:14:12;4.20;;;2.25;;
58214;SDS011;44011;52.218;1.480;2022-07-18T13:16:39;4.22;;;2.30;;
58214;SDS011;44011;52.218;1.480;2022-07-18T13:19:04;5.55;;;2.42;;
58214;SDS011;44011;52.218;1.480;2022-07-18T13:21:30;4.22;;;2.25;;
58214;SDS011;44011;52.218;1.480;2022-07-18T13:23:55;3.20;;;2.30;;
58214;SDS011;44011;52.218;1.480;2022-07-18T13:26:20;3.80;;;2.17;;
58214;SDS011;44011;52.218;1.480;2022-07-18T13:28:46;4.13;;;2.22;;
58214;SDS011;44011;52.218;1.480;2022-07-18T13:31:12;4.07;;;2.40;;
58214;SDS011;44011;52.218;1.480;2022-07-18T13:33:37;3.38;;;2.63;;
58214;SDS011;44011;52.218;1.480;2022-07-18T13:36:02;2.75;;;2.05;;
58214;SDS011;44011;52.218;1.480;2022-07-18T13:38:28;4.65;;;2.53;;
58214;SDS011;44011;52.218;1.480;2022-07-18T13:40:53;3.03;;;2.28;;
58214;SDS011;44011;52.218;1.480;2022-07-18T13:43:19;3.33;;;2.20;;
58214;SDS011;44011;52.218;1.480;2022-07-18T13:45:45;3.50;;;2.13;;
58214;SDS011;44011;52.218;1.480;2022-07-18T13:48:10;1.95;;;1.75;;
58214;SDS011;44011;52.218;1.480;2022-07-18T13:50:36;5.30;;;2.55;;
58214;SDS011;44011;52.218;1.480;2022-07-18T13:53:01;3.47;;;2.35;;
58214;SDS011;44011;52.218;1.480;2022-07-18T13:55:27;5.47;;;2.35;;
58214;SDS011;44011;52.218;1.480;2022-07-18T13:57:53;3.60;;;2.67;;
58214;SDS011;44011;52.218;1.480;2022-07-18T14:00:18;3.25;;;2.63;;
58214;SDS011;44011;52.218;1.480;2022-07-18T14:02:44;6.15;;;2.53;;
58214;SDS011;44011;52.218;1.480;2022-07-18T14:05:09;3.28;;;2.78;;
58214;SDS011;44011;52.218;1.480;2022-07-18T14:07:36;6.60;;;2.70;;
58214;SDS011;44011;52.218;1.480;2022-07-18T14:10:02;3.70;;;2.20;;
58214;SDS011;44011;52.218;1.480;2022-07-18T14:12:27;4.32;;;2.22;;
58214;SDS011;44011;52.218;1.480;2022-07-18T14:14:53;5.47;;;2.60;;
58214;SDS011;44011;52.218;1.480;2022-07-18T14:17:18;7.05;;;2.30;;
58214;SDS011;44011;52.218;1.480;2022-07-18T14:19:44;5.15;;;2.50;;
58214;SDS011;44011;52.218;1.480;2022-07-18T14:22:10;4.20;;;2.20;;
58214;SDS011;44011;52.218;1.480;2022-07-18T14:24:37;3.55;;;2.17;;
58214;SDS011;44011;52.218;1.480;2022-07-18T14:27:02;5.15;;;2.40;;
58214;SDS011;44011;52.218;1.480;2022-07-18T14:29:28;2.83;;;2.40;;
58214;SDS011;44011;52.218;1.480;2022-07-18T14:31:54;6.35;;;2.38;;
58214;SDS011;44011;52.218;1.480;2022-07-18T14:34:19;2.53;;;1.92;;
58214;SDS011;44011;52.218;1.480;2022-07-18T14:36:44;5.15;;;1.95;;
58214;SDS011;44011;52.218;1.480;2022-07-18T14:39:11;4.25;;;2.28;;
58214;SDS011;44011;52.218;1.480;2022-07-18T14:41:37;2.92;;;1.98;;
58214;SDS011;44011;52.218;1.480;2022-07-18T14:44:02;5.28;;;2.10;;
58214;SDS011;44011;52.218;1.480;2022-07-18T14:46:28;3.25;;;1.90;;
58214;SDS011;44011;52.218;1.480;2022-07-18T14:48:54;3.88;;;1.83;;
58214;SDS011;44011;52.218;1.480;2022-07-18T14:51:19;6.40;;;2.22;;
58214;SDS011;44011;52.218;1.480;2022-07-18T14:53:45;2.13;;;1.80;;
58214;SDS011;44011;52.218;1.480;2022-07-18T14:56:10;3.47;;;1.85;;
58214;SDS011;44011;52.218;1.480;2022-07-18T14:58:36;4.82;;;2.00;;
58214;SDS011;44011;52.218;1.480;2022-07-18T15:01:01;1.90;;;1.70;;
58214;SDS011;44011;52.218;1.480;2022-07-18T15:03:26;4.00;;;2.03;;
58214;SDS011;44011;52.218;1.480;2022-07-18T15:05:52;3.40;;;1.58;;
58214;SDS011;44011;52.218;1.480;2022-07-18T15:08:18;4.60;;;2.00;;
58214;SDS011;44011;52.218;1.480;2022-07-18T15:10:43;4.68;;;2.13;;
58214;SDS011;44011;52.218;1.480;2022-07-18T15:13:08;2.05;;;1.77;;
58214;SDS011;44011;52.218;1.480;2022-07-18T15:15:34;3.92;;;1.70;;
58214;SDS011;44011;52.218;1.480;2022-07-18T15:17:59;3.25;;;2.17;;
58214;SDS011;44011;52.218;1.480;2022-07-18T15:20:25;3.63;;;2.13;;
58214;SDS011;44011;52.218;1.480;2022-07-18T15:22:51;3.60;;;1.80;;
58214;SDS011;44011;52.218;1.480;2022-07-18T15:25:16;3.55;;;2.10;;
58214;SDS011;44011;52.218;1.480;2022-07-18T15:27:42;3.45;;;2.03;;
58214;SDS011;44011;52.218;1.480;2022-07-18T15:30:08;4.43;;;2.13;;
58214;SDS011;44011;52.218;1.480;2022-07-18T15:32:34;2.33;;;1.90;;